sensor_id;sensor_type;location;lat;lon;timestamp;temperature;humidity
11142;DHT22;5625;50.122;19.864;2023-07-09T00:01:51;19.70;99.90
11142;DHT22;5625;50.122;19.864;2023-07-09T00:04:19;19.60;99.90
11142;DHT22;5625;50.122;19.864;2023-07-09T00:06:48;19.60;99.90
11142;DHT22;5625;50.122;19.864;2023-07-09T00:09:18;19.60;99.90
11142;DHT22;5625;50.122;19.864;2023-07-09T00:11:46;19.50;99.90
11142;DHT22;5625;50.122;19.864;2023-07-09T00:14:16;19.50;99.90
11142;DHT22;5625;50.122;19.864;2023-07-09T00:16:46;19.40;99.90
11142;DHT22;5625;50.122;19.864;2023-07-09T00:19:17;19.40;99.90
11142;DHT22;5625;50.122;19.864;2023-07-09T00:21:48;19.40;99.90
11142;DHT22;5625;50.122;19.864;2023-07-09T00:24:20;19.40;99.90
11142;DHT22;5625;50.122;19.864;2023-07-09T00:26:48;19.40;99.90
11142;DHT22;5625;50.122;19.864;2023-07-09T00:29:17;19.30;99.90
11142;DHT22;5625;50.122;19.864;2023-07-09T00:31:46;19.30;99.90
11142;DHT22;5625;50.122;19.864;2023-07-09T00:34:18;19.20;99.90
11142;DHT22;5625;50.122;19.864;2023-07-09T00:36:48;19.20;1.00
11142;DHT22;5625;50.122;19.864;2023-07-09T00:39:18;19.10;1.00
11142;DHT22;5625;50.122;19.864;2023-07-09T00:41:47;19.10;1.70
11142;DHT22;5625;50.122;19.864;2023-07-09T00:44:26;19.10;85.20
11142;DHT22;5625;50.122;19.864;2023-07-09T00:47:21;19.00;40.90
11142;DHT22;5625;50.122;19.864;2023-07-09T00:50:00;19.00;99.90
11142;DHT22;5625;50.122;19.864;2023-07-09T00:52:35;19.00;99.90
11142;DHT22;5625;50.122;19.864;2023-07-09T00:55:07;18.90;99.90
11142;DHT22;5625;50.122;19.864;2023-07-09T00:57:38;18.90;99.90
11142;DHT22;5625;50.122;19.864;2023-07-09T01:00:11;18.90;99.90
11142;DHT22;5625;50.122;19.864;2023-07-09T01:02:45;18.90;93.10
11142;DHT22;5625;50.122;19.864;2023-07-09T01:05:16;18.80;77.90
11142;DHT22;5625;50.122;19.864;2023-07-09T01:07:47;18.80;98.30
11142;DHT22;5625;50.122;19.864;2023-07-09T01:10:18;18.80;99.90
11142;DHT22;5625;50.122;19.864;2023-07-09T01:12:48;18.70;99.90
11142;DHT22;5625;50.122;19.864;2023-07-09T01:15:17;18.70;99.90
11142;DHT22;5625;50.122;19.864;2023-07-09T01:17:47;18.70;99.90
11142;DHT22;5625;50.122;19.864;2023-07-09T01:20:20;18.60;99.90
11142;DHT22;5625;50.122;19.864;2023-07-09T01:22:51;18.60;1.00
11142;DHT22;5625;50.122;19.864;2023-07-09T01:25:21;18.60;1.00
11142;DHT22;5625;50.122;19.864;2023-07-09T01:27:50;18.50;1.00
11142;DHT22;5625;50.122;19.864;2023-07-09T01:30:22;18.50;31.90
11142;DHT22;5625;50.122;19.864;2023-07-09T01:32:50;18.50;81.30
11142;DHT22;5625;50.122;19.864;2023-07-09T01:35:20;18.40;99.90
11142;DHT22;5625;50.122;19.864;2023-07-09T01:37:50;18.30;99.90
11142;DHT22;5625;50.122;19.864;2023-07-09T01:40:20;18.30;99.90
11142;DHT22;5625;50.122;19.864;2023-07-09T01:43:00;18.30;99.90
11142;DHT22;5625;50.122;19.864;2023-07-09T01:45:34;18.20;99.90
11142;DHT22;5625;50.122;19.864;2023-07-09T01:48:03;18.20;99.90
11142;DHT22;5625;50.122;19.864;2023-07-09T01:50:31;18.20;99.90
11142;DHT22;5625;50.122;19.864;2023-07-09T01:53:01;18.10;99.90
11142;DHT22;5625;50.122;19.864;2023-07-09T01:55:29;18.10;99.90
11142;DHT22;5625;50.122;19.864;2023-07-09T01:57:57;18.10;99.90
11142;DHT22;5625;50.122;19.864;2023-07-09T02:00:26;18.00;99.90
11142;DHT22;5625;50.122;19.864;2023-07-09T02:02:54;18.00;99.90
11142;DHT22;5625;50.122;19.864;2023-07-09T02:05:24;18.00;99.90
11142;DHT22;5625;50.122;19.864;2023-07-09T02:07:53;17.90;1.00
11142;DHT22;5625;50.122;19.864;2023-07-09T02:10:23;17.90;1.00
11142;DHT22;5625;50.122;19.864;2023-07-09T02:12:51;17.90;1.00
11142;DHT22;5625;50.122;19.864;2023-07-09T02:15:19;17.80;99.90
11142;DHT22;5625;50.122;19.864;2023-07-09T02:17:47;17.80;99.90
11142;DHT22;5625;50.122;19.864;2023-07-09T02:20:16;17.80;1.00
11142;DHT22;5625;50.122;19.864;2023-07-09T02:22:47;17.80;99.90
11142;DHT22;5625;50.122;19.864;2023-07-09T02:25:15;17.70;99.90
11142;DHT22;5625;50.122;19.864;2023-07-09T02:27:45;17.70;99.90
11142;DHT22;5625;50.122;19.864;2023-07-09T02:30:13;17.70;99.90
11142;DHT22;5625;50.122;19.864;2023-07-09T02:32:41;17.60;99.90
11142;DHT22;5625;50.122;19.864;2023-07-09T02:35:09;17.60;99.90
11142;DHT22;5625;50.122;19.864;2023-07-09T02:37:37;17.50;1.00
11142;DHT22;5625;50.122;19.864;2023-07-09T02:40:07;17.50;99.90
11142;DHT22;5625;50.122;19.864;2023-07-09T02:42:35;17.40;1.00
11142;DHT22;5625;50.122;19.864;2023-07-09T02:45:06;17.40;1.00
11142;DHT22;5625;50.122;19.864;2023-07-09T02:47:34;17.40;1.00
11142;DHT22;5625;50.122;19.864;2023-07-09T02:50:03;17.30;1.00
11142;DHT22;5625;50.122;19.864;2023-07-09T02:52:31;17.30;1.00
11142;DHT22;5625;50.122;19.864;2023-07-09T02:54:59;17.20;1.00
11142;DHT22;5625;50.122;19.864;2023-07-09T02:57:27;17.20;1.00
11142;DHT22;5625;50.122;19.864;2023-07-09T02:59:55;17.20;1.00
11142;DHT22;5625;50.122;19.864;2023-07-09T03:02:25;17.20;1.00
11142;DHT22;5625;50.122;19.864;2023-07-09T03:04:53;17.10;1.00
11142;DHT22;5625;50.122;19.864;2023-07-09T03:07:21;17.10;1.00
11142;DHT22;5625;50.122;19.864;2023-07-09T03:09:49;17.10;1.00
11142;DHT22;5625;50.122;19.864;2023-07-09T03:12:17;17.10;1.00
11142;DHT22;5625;50.122;19.864;2023-07-09T03:14:48;17.10;1.00
11142;DHT22;5625;50.122;19.864;2023-07-09T03:17:16;17.10;1.00
11142;DHT22;5625;50.122;19.864;2023-07-09T03:19:46;17.10;1.00
11142;DHT22;5625;50.122;19.864;2023-07-09T03:22:14;17.10;1.00
11142;DHT22;5625;50.122;19.864;2023-07-09T03:24:43;17.00;1.00
11142;DHT22;5625;50.122;19.864;2023-07-09T03:27:11;17.00;1.00
11142;DHT22;5625;50.122;19.864;2023-07-09T03:29:39;17.00;1.00
11142;DHT22;5625;50.122;19.864;2023-07-09T03:32:07;17.00;1.00
11142;DHT22;5625;50.122;19.864;2023-07-09T03:34:36;17.00;1.00
11142;DHT22;5625;50.122;19.864;2023-07-09T03:37:05;17.00;1.00
11142;DHT22;5625;50.122;19.864;2023-07-09T03:39:33;16.90;1.00
11142;DHT22;5625;50.122;19.864;2023-07-09T03:42:02;16.90;1.00
11142;DHT22;5625;50.122;19.864;2023-07-09T03:44:30;16.90;1.00
11142;DHT22;5625;50.122;19.864;2023-07-09T03:46:58;16.90;1.00
11142;DHT22;5625;50.122;19.864;2023-07-09T03:49:26;16.90;1.00
11142;DHT22;5625;50.122;19.864;2023-07-09T03:51:54;16.90;1.00
11142;DHT22;5625;50.122;19.864;2023-07-09T03:54:23;16.90;1.00
11142;DHT22;5625;50.122;19.864;2023-07-09T03:56:53;17.00;1.00
11142;DHT22;5625;50.122;19.864;2023-07-09T03:59:21;17.00;1.00
11142;DHT22;5625;50.122;19.864;2023-07-09T04:01:49;17.10;1.00
11142;DHT22;5625;50.122;19.864;2023-07-09T04:04:18;17.10;1.00
11142;DHT22;5625;50.122;19.864;2023-07-09T04:06:47;17.10;1.00
11142;DHT22;5625;50.122;19.864;2023-07-09T04:09:18;17.10;1.00
11142;DHT22;5625;50.122;19.864;2023-07-09T04:11:49;17.20;1.00
11142;DHT22;5625;50.122;19.864;2023-07-09T04:14:17;17.20;1.00
11142;DHT22;5625;50.122;19.864;2023-07-09T04:16:45;17.20;1.00
11142;DHT22;5625;50.122;19.864;2023-07-09T04:19:13;17.20;1.00
11142;DHT22;5625;50.122;19.864;2023-07-09T04:21:41;17.20;1.00
11142;DHT22;5625;50.122;19.864;2023-07-09T04:24:09;17.30;4.40
11142;DHT22;5625;50.122;19.864;2023-07-09T04:26:37;17.20;31.30
11142;DHT22;5625;50.122;19.864;2023-07-09T04:29:08;17.30;50.30
11142;DHT22;5625;50.122;19.864;2023-07-09T04:31:36;17.30;56.50
11142;DHT22;5625;50.122;19.864;2023-07-09T04:34:05;17.30;53.00
11142;DHT22;5625;50.122;19.864;2023-07-09T04:36:33;17.30;55.30
11142;DHT22;5625;50.122;19.864;2023-07-09T04:39:02;17.30;82.50
11142;DHT22;5625;50.122;19.864;2023-07-09T04:41:30;17.30;91.10
11142;DHT22;5625;50.122;19.864;2023-07-09T04:43:58;17.40;59.00
11142;DHT22;5625;50.122;19.864;2023-07-09T04:46:28;17.40;63.50
11142;DHT22;5625;50.122;19.864;2023-07-09T04:48:56;17.40;76.10
11142;DHT22;5625;50.122;19.864;2023-07-09T04:51:24;17.50;96.50
11142;DHT22;5625;50.122;19.864;2023-07-09T04:53:52;17.50;99.00
11142;DHT22;5625;50.122;19.864;2023-07-09T04:56:21;17.60;99.90
11142;DHT22;5625;50.122;19.864;2023-07-09T04:58:49;17.70;95.40
11142;DHT22;5625;50.122;19.864;2023-07-09T05:01:17;17.70;75.20
11142;DHT22;5625;50.122;19.864;2023-07-09T05:03:47;17.80;42.80
11142;DHT22;5625;50.122;19.864;2023-07-09T05:06:17;18.00;1.00
11142;DHT22;5625;50.122;19.864;2023-07-09T05:08:45;18.10;1.00
11142;DHT22;5625;50.122;19.864;2023-07-09T05:11:15;18.20;1.00
11142;DHT22;5625;50.122;19.864;2023-07-09T05:13:43;18.30;1.00
11142;DHT22;5625;50.122;19.864;2023-07-09T05:16:11;18.50;1.00
11142;DHT22;5625;50.122;19.864;2023-07-09T05:18:40;18.60;1.00
11142;DHT22;5625;50.122;19.864;2023-07-09T05:21:09;18.80;1.00
11142;DHT22;5625;50.122;19.864;2023-07-09T05:23:37;18.90;99.90
11142;DHT22;5625;50.122;19.864;2023-07-09T05:26:05;19.10;99.90
11142;DHT22;5625;50.122;19.864;2023-07-09T05:28:33;19.30;99.90
11142;DHT22;5625;50.122;19.864;2023-07-09T05:31:01;19.50;99.90
11142;DHT22;5625;50.122;19.864;2023-07-09T05:33:29;19.80;99.90
11142;DHT22;5625;50.122;19.864;2023-07-09T05:35:57;20.00;99.90
11142;DHT22;5625;50.122;19.864;2023-07-09T05:38:27;20.30;11.00
11142;DHT22;5625;50.122;19.864;2023-07-09T05:41:00;20.60;1.00
11142;DHT22;5625;50.122;19.864;2023-07-09T05:43:28;20.90;1.00
11142;DHT22;5625;50.122;19.864;2023-07-09T05:45:57;21.10;99.90
11142;DHT22;5625;50.122;19.864;2023-07-09T05:48:25;21.40;99.90
11142;DHT22;5625;50.122;19.864;2023-07-09T05:50:54;21.80;10.30
11142;DHT22;5625;50.122;19.864;2023-07-09T05:53:23;22.10;1.00
11142;DHT22;5625;50.122;19.864;2023-07-09T05:55:54;22.30;1.00
11142;DHT22;5625;50.122;19.864;2023-07-09T05:58:23;22.60;99.90
11142;DHT22;5625;50.122;19.864;2023-07-09T06:00:51;22.90;1.00
11142;DHT22;5625;50.122;19.864;2023-07-09T06:03:21;23.20;99.90
11142;DHT22;5625;50.122;19.864;2023-07-09T06:05:50;23.50;1.00
11142;DHT22;5625;50.122;19.864;2023-07-09T06:08:19;23.80;99.90
11142;DHT22;5625;50.122;19.864;2023-07-09T06:10:51;24.00;86.80
11142;DHT22;5625;50.122;19.864;2023-07-09T06:13:21;24.30;1.00
11142;DHT22;5625;50.122;19.864;2023-07-09T06:15:51;24.70;99.90
11142;DHT22;5625;50.122;19.864;2023-07-09T06:18:19;25.00;99.90
11142;DHT22;5625;50.122;19.864;2023-07-09T06:20:49;25.30;1.00
11142;DHT22;5625;50.122;19.864;2023-07-09T06:23:17;25.50;99.90
11142;DHT22;5625;50.122;19.864;2023-07-09T06:25:46;25.70;99.90
11142;DHT22;5625;50.122;19.864;2023-07-09T06:28:16;25.90;99.90
11142;DHT22;5625;50.122;19.864;2023-07-09T06:30:46;26.10;1.00
11142;DHT22;5625;50.122;19.864;2023-07-09T06:33:16;26.30;1.00
11142;DHT22;5625;50.122;19.864;2023-07-09T06:35:48;26.60;99.90
11142;DHT22;5625;50.122;19.864;2023-07-09T06:38:17;26.80;99.90
11142;DHT22;5625;50.122;19.864;2023-07-09T06:40:46;26.90;99.90
11142;DHT22;5625;50.122;19.864;2023-07-09T06:43:14;27.10;90.60
11142;DHT22;5625;50.122;19.864;2023-07-09T06:45:50;27.30;20.90
11142;DHT22;5625;50.122;19.864;2023-07-09T06:48:19;27.40;1.00
11142;DHT22;5625;50.122;19.864;2023-07-09T06:50:47;27.70;1.00
11142;DHT22;5625;50.122;19.864;2023-07-09T06:53:15;27.90;1.00
11142;DHT22;5625;50.122;19.864;2023-07-09T06:55:43;28.00;1.00
11142;DHT22;5625;50.122;19.864;2023-07-09T06:58:12;28.20;1.00
11142;DHT22;5625;50.122;19.864;2023-07-09T07:00:40;28.40;1.00
11142;DHT22;5625;50.122;19.864;2023-07-09T07:03:10;28.60;1.00
11142;DHT22;5625;50.122;19.864;2023-07-09T07:05:43;28.70;99.90
11142;DHT22;5625;50.122;19.864;2023-07-09T07:08:13;29.00;99.90
11142;DHT22;5625;50.122;19.864;2023-07-09T07:10:41;29.10;99.90
11142;DHT22;5625;50.122;19.864;2023-07-09T07:13:10;29.20;99.90
11142;DHT22;5625;50.122;19.864;2023-07-09T07:15:39;29.40;99.90
11142;DHT22;5625;50.122;19.864;2023-07-09T07:18:08;29.70;99.90
11142;DHT22;5625;50.122;19.864;2023-07-09T07:20:37;29.90;99.90
11142;DHT22;5625;50.122;19.864;2023-07-09T07:23:05;30.00;99.90
11142;DHT22;5625;50.122;19.864;2023-07-09T07:25:33;30.20;99.90
11142;DHT22;5625;50.122;19.864;2023-07-09T07:28:02;30.40;99.90
11142;DHT22;5625;50.122;19.864;2023-07-09T07:30:32;30.60;99.90
11142;DHT22;5625;50.122;19.864;2023-07-09T07:33:00;30.80;99.90
11142;DHT22;5625;50.122;19.864;2023-07-09T07:35:29;30.90;99.90
11142;DHT22;5625;50.122;19.864;2023-07-09T07:37:58;31.20;99.90
11142;DHT22;5625;50.122;19.864;2023-07-09T07:40:26;31.40;99.90
11142;DHT22;5625;50.122;19.864;2023-07-09T07:42:54;31.50;99.90
11142;DHT22;5625;50.122;19.864;2023-07-09T07:45:22;31.60;99.90
11142;DHT22;5625;50.122;19.864;2023-07-09T07:47:50;31.70;99.90
11142;DHT22;5625;50.122;19.864;2023-07-09T07:50:19;31.90;99.90
11142;DHT22;5625;50.122;19.864;2023-07-09T07:52:47;32.20;99.90
11142;DHT22;5625;50.122;19.864;2023-07-09T07:55:17;32.30;99.90
11142;DHT22;5625;50.122;19.864;2023-07-09T07:57:46;32.50;99.90
11142;DHT22;5625;50.122;19.864;2023-07-09T08:00:16;32.60;99.90
11142;DHT22;5625;50.122;19.864;2023-07-09T08:02:45;32.70;99.90
11142;DHT22;5625;50.122;19.864;2023-07-09T08:05:13;32.80;97.70
11142;DHT22;5625;50.122;19.864;2023-07-09T08:07:41;32.80;94.60
11142;DHT22;5625;50.122;19.864;2023-07-09T08:10:10;33.00;92.10
11142;DHT22;5625;50.122;19.864;2023-07-09T08:12:40;33.10;87.50
11142;DHT22;5625;50.122;19.864;2023-07-09T08:15:09;33.30;67.00
11142;DHT22;5625;50.122;19.864;2023-07-09T08:17:37;33.40;59.20
11142;DHT22;5625;50.122;19.864;2023-07-09T08:20:06;33.50;48.40
11142;DHT22;5625;50.122;19.864;2023-07-09T08:22:34;33.70;43.00
11142;DHT22;5625;50.122;19.864;2023-07-09T08:25:07;33.80;40.60
11142;DHT22;5625;50.122;19.864;2023-07-09T08:27:35;34.00;37.00
11142;DHT22;5625;50.122;19.864;2023-07-09T08:30:06;34.20;39.50
11142;DHT22;5625;50.122;19.864;2023-07-09T08:32:34;34.30;21.70
11142;DHT22;5625;50.122;19.864;2023-07-09T08:35:03;34.50;18.80
11142;DHT22;5625;50.122;19.864;2023-07-09T08:37:51;34.60;17.00
11142;DHT22;5625;50.122;19.864;2023-07-09T08:40:19;34.80;5.00
11142;DHT22;5625;50.122;19.864;2023-07-09T08:42:53;34.90;1.00
11142;DHT22;5625;50.122;19.864;2023-07-09T08:45:38;35.00;1.00
11142;DHT22;5625;50.122;19.864;2023-07-09T08:48:15;35.20;1.00
11142;DHT22;5625;50.122;19.864;2023-07-09T08:50:50;35.20;1.00
11142;DHT22;5625;50.122;19.864;2023-07-09T08:53:21;35.30;1.00
11142;DHT22;5625;50.122;19.864;2023-07-09T08:55:53;35.30;1.00
11142;DHT22;5625;50.122;19.864;2023-07-09T08:58:26;35.50;1.00
11142;DHT22;5625;50.122;19.864;2023-07-09T09:00:59;35.50;1.00
11142;DHT22;5625;50.122;19.864;2023-07-09T09:03:34;35.60;1.00
11142;DHT22;5625;50.122;19.864;2023-07-09T09:06:11;35.70;1.00
11142;DHT22;5625;50.122;19.864;2023-07-09T09:08:41;35.70;1.00
11142;DHT22;5625;50.122;19.864;2023-07-09T09:11:19;35.80;1.00
11142;DHT22;5625;50.122;19.864;2023-07-09T09:13:50;35.80;1.00
11142;DHT22;5625;50.122;19.864;2023-07-09T09:16:26;35.90;1.00
11142;DHT22;5625;50.122;19.864;2023-07-09T09:18:58;35.90;1.00
11142;DHT22;5625;50.122;19.864;2023-07-09T09:21:30;36.00;1.00
11142;DHT22;5625;50.122;19.864;2023-07-09T09:24:09;36.00;1.00
11142;DHT22;5625;50.122;19.864;2023-07-09T09:26:42;36.10;1.00
11142;DHT22;5625;50.122;19.864;2023-07-09T09:29:12;36.10;1.00
11142;DHT22;5625;50.122;19.864;2023-07-09T09:31:45;36.20;1.00
11142;DHT22;5625;50.122;19.864;2023-07-09T09:34:18;36.20;1.00
11142;DHT22;5625;50.122;19.864;2023-07-09T09:36:47;36.30;1.00
11142;DHT22;5625;50.122;19.864;2023-07-09T09:39:16;36.40;1.00
11142;DHT22;5625;50.122;19.864;2023-07-09T09:41:45;36.40;1.00
11142;DHT22;5625;50.122;19.864;2023-07-09T09:44:21;36.50;1.00
11142;DHT22;5625;50.122;19.864;2023-07-09T09:46:50;36.50;1.00
11142;DHT22;5625;50.122;19.864;2023-07-09T09:49:18;36.60;1.00
11142;DHT22;5625;50.122;19.864;2023-07-09T09:51:47;36.60;1.00
11142;DHT22;5625;50.122;19.864;2023-07-09T09:54:22;36.70;1.00
11142;DHT22;5625;50.122;19.864;2023-07-09T09:56:53;36.70;1.00
11142;DHT22;5625;50.122;19.864;2023-07-09T09:59:33;36.50;1.00
11142;DHT22;5625;50.122;19.864;2023-07-09T10:02:15;36.20;1.00
11142;DHT22;5625;50.122;19.864;2023-07-09T10:04:47;36.10;1.00
11142;DHT22;5625;50.122;19.864;2023-07-09T10:07:23;35.90;1.00
11142;DHT22;5625;50.122;19.864;2023-07-09T10:09:55;35.60;1.00
11142;DHT22;5625;50.122;19.864;2023-07-09T10:12:35;35.50;1.00
11142;DHT22;5625;50.122;19.864;2023-07-09T10:15:16;35.60;1.00
11142;DHT22;5625;50.122;19.864;2023-07-09T10:17:54;35.70;1.00
11142;DHT22;5625;50.122;19.864;2023-07-09T10:20:34;35.50;1.00
11142;DHT22;5625;50.122;19.864;2023-07-09T10:23:13;35.40;1.00
11142;DHT22;5625;50.122;19.864;2023-07-09T10:25:50;35.10;1.00
11142;DHT22;5625;50.122;19.864;2023-07-09T10:28:31;35.40;1.00
11142;DHT22;5625;50.122;19.864;2023-07-09T10:31:10;35.60;1.00
11142;DHT22;5625;50.122;19.864;2023-07-09T10:33:57;35.40;1.00
11142;DHT22;5625;50.122;19.864;2023-07-09T10:36:39;35.50;1.00
11142;DHT22;5625;50.122;19.864;2023-07-09T10:39:14;35.80;1.00
11142;DHT22;5625;50.122;19.864;2023-07-09T10:41:43;36.00;1.00
11142;DHT22;5625;50.122;19.864;2023-07-09T10:44:16;36.20;1.00
11142;DHT22;5625;50.122;19.864;2023-07-09T10:47:03;36.30;1.00
11142;DHT22;5625;50.122;19.864;2023-07-09T10:49:41;36.50;1.00
11142;DHT22;5625;50.122;19.864;2023-07-09T10:52:17;36.50;1.00
11142;DHT22;5625;50.122;19.864;2023-07-09T10:54:59;36.60;1.00
11142;DHT22;5625;50.122;19.864;2023-07-09T10:57:30;36.60;1.00
11142;DHT22;5625;50.122;19.864;2023-07-09T11:00:00;36.50;1.00
11142;DHT22;5625;50.122;19.864;2023-07-09T11:02:31;36.50;1.00
11142;DHT22;5625;50.122;19.864;2023-07-09T11:05:02;36.60;1.00
11142;DHT22;5625;50.122;19.864;2023-07-09T11:07:32;36.70;1.00
11142;DHT22;5625;50.122;19.864;2023-07-09T11:10:04;36.70;1.00
11142;DHT22;5625;50.122;19.864;2023-07-09T11:12:35;36.80;1.00
11142;DHT22;5625;50.122;19.864;2023-07-09T11:15:08;36.80;1.00
11142;DHT22;5625;50.122;19.864;2023-07-09T11:17:40;36.90;1.00
11142;DHT22;5625;50.122;19.864;2023-07-09T11:20:20;36.70;1.00
11142;DHT22;5625;50.122;19.864;2023-07-09T11:22:53;36.50;1.00
11142;DHT22;5625;50.122;19.864;2023-07-09T11:25:31;36.40;1.00
11142;DHT22;5625;50.122;19.864;2023-07-09T11:28:03;36.30;1.00
11142;DHT22;5625;50.122;19.864;2023-07-09T11:30:33;36.40;1.00
11142;DHT22;5625;50.122;19.864;2023-07-09T11:33:16;36.40;1.00
11142;DHT22;5625;50.122;19.864;2023-07-09T11:35:54;36.20;1.00
11142;DHT22;5625;50.122;19.864;2023-07-09T11:38:40;36.40;1.00
11142;DHT22;5625;50.122;19.864;2023-07-09T11:41:26;36.40;1.00
11142;DHT22;5625;50.122;19.864;2023-07-09T11:44:04;36.40;1.00
11142;DHT22;5625;50.122;19.864;2023-07-09T11:46:36;36.30;1.00
11142;DHT22;5625;50.122;19.864;2023-07-09T11:49:08;36.30;1.00
11142;DHT22;5625;50.122;19.864;2023-07-09T11:51:45;36.30;1.00
11142;DHT22;5625;50.122;19.864;2023-07-09T11:54:20;36.40;1.00
11142;DHT22;5625;50.122;19.864;2023-07-09T11:56:57;36.50;1.00
11142;DHT22;5625;50.122;19.864;2023-07-09T11:59:25;36.30;1.00
11142;DHT22;5625;50.122;19.864;2023-07-09T12:01:53;36.40;1.00
11142;DHT22;5625;50.122;19.864;2023-07-09T12:04:31;36.40;1.00
11142;DHT22;5625;50.122;19.864;2023-07-09T12:07:06;36.40;1.00
11142;DHT22;5625;50.122;19.864;2023-07-09T12:09:40;36.40;1.00
11142;DHT22;5625;50.122;19.864;2023-07-09T12:12:20;36.40;1.00
11142;DHT22;5625;50.122;19.864;2023-07-09T12:14:49;36.50;1.00
11142;DHT22;5625;50.122;19.864;2023-07-09T12:17:18;36.50;1.00
11142;DHT22;5625;50.122;19.864;2023-07-09T12:19:46;36.60;1.00
11142;DHT22;5625;50.122;19.864;2023-07-09T12:22:18;36.60;1.00
11142;DHT22;5625;50.122;19.864;2023-07-09T12:24:48;36.60;1.00
11142;DHT22;5625;50.122;19.864;2023-07-09T12:27:22;36.60;1.00
11142;DHT22;5625;50.122;19.864;2023-07-09T12:29:53;36.60;1.00
11142;DHT22;5625;50.122;19.864;2023-07-09T12:32:22;36.50;1.00
11142;DHT22;5625;50.122;19.864;2023-07-09T12:34:55;36.50;1.00
11142;DHT22;5625;50.122;19.864;2023-07-09T12:37:26;36.50;1.00
11142;DHT22;5625;50.122;19.864;2023-07-09T12:39:59;36.50;1.00
11142;DHT22;5625;50.122;19.864;2023-07-09T12:42:30;36.50;1.00
11142;DHT22;5625;50.122;19.864;2023-07-09T12:44:59;36.40;1.00
11142;DHT22;5625;50.122;19.864;2023-07-09T12:47:28;36.40;1.00
11142;DHT22;5625;50.122;19.864;2023-07-09T12:50:01;36.50;1.00
11142;DHT22;5625;50.122;19.864;2023-07-09T12:52:31;36.50;1.00
11142;DHT22;5625;50.122;19.864;2023-07-09T12:55:02;36.40;1.00
11142;DHT22;5625;50.122;19.864;2023-07-09T12:57:30;36.30;1.00
11142;DHT22;5625;50.122;19.864;2023-07-09T13:00:01;36.20;1.00
11142;DHT22;5625;50.122;19.864;2023-07-09T13:02:29;36.20;1.00
11142;DHT22;5625;50.122;19.864;2023-07-09T13:05:02;36.20;1.00
11142;DHT22;5625;50.122;19.864;2023-07-09T13:07:35;36.20;1.00
11142;DHT22;5625;50.122;19.864;2023-07-09T13:10:11;36.20;1.00
11142;DHT22;5625;50.122;19.864;2023-07-09T13:12:45;36.10;1.00
11142;DHT22;5625;50.122;19.864;2023-07-09T13:15:26;36.00;1.00
11142;DHT22;5625;50.122;19.864;2023-07-09T13:18:01;35.90;1.00
11142;DHT22;5625;50.122;19.864;2023-07-09T13:20:33;35.90;1.00
11142;DHT22;5625;50.122;19.864;2023-07-09T13:23:10;35.90;1.00
11142;DHT22;5625;50.122;19.864;2023-07-09T13:25:39;35.90;1.00
11142;DHT22;5625;50.122;19.864;2023-07-09T13:28:19;35.70;1.00
11142;DHT22;5625;50.122;19.864;2023-07-09T13:30:48;35.70;1.00
11142;DHT22;5625;50.122;19.864;2023-07-09T13:33:18;35.70;1.00
11142;DHT22;5625;50.122;19.864;2023-07-09T13:35:47;35.70;1.00
11142;DHT22;5625;50.122;19.864;2023-07-09T13:38:19;35.70;1.00
11142;DHT22;5625;50.122;19.864;2023-07-09T13:40:49;35.60;1.00
11142;DHT22;5625;50.122;19.864;2023-07-09T13:43:20;35.60;1.00
11142;DHT22;5625;50.122;19.864;2023-07-09T13:45:49;35.60;1.00
11142;DHT22;5625;50.122;19.864;2023-07-09T13:48:20;35.60;1.00
11142;DHT22;5625;50.122;19.864;2023-07-09T13:50:50;35.60;1.00
11142;DHT22;5625;50.122;19.864;2023-07-09T13:53:23;35.50;1.00
11142;DHT22;5625;50.122;19.864;2023-07-09T13:55:51;35.60;1.00
11142;DHT22;5625;50.122;19.864;2023-07-09T13:58:22;35.50;1.00
11142;DHT22;5625;50.122;19.864;2023-07-09T14:00:55;35.40;1.00
11142;DHT22;5625;50.122;19.864;2023-07-09T14:03:29;35.40;1.00
11142;DHT22;5625;50.122;19.864;2023-07-09T14:05:58;35.30;1.00
11142;DHT22;5625;50.122;19.864;2023-07-09T14:08:27;35.30;1.00
11142;DHT22;5625;50.122;19.864;2023-07-09T14:10:58;35.30;1.00
11142;DHT22;5625;50.122;19.864;2023-07-09T14:13:30;35.30;1.00
11142;DHT22;5625;50.122;19.864;2023-07-09T14:16:00;35.30;1.00
11142;DHT22;5625;50.122;19.864;2023-07-09T14:18:29;35.30;1.00
11142;DHT22;5625;50.122;19.864;2023-07-09T14:20:57;35.20;1.00
11142;DHT22;5625;50.122;19.864;2023-07-09T14:23:27;35.10;1.00
11142;DHT22;5625;50.122;19.864;2023-07-09T14:25:56;35.00;1.00
11142;DHT22;5625;50.122;19.864;2023-07-09T14:28:24;35.00;1.00
11142;DHT22;5625;50.122;19.864;2023-07-09T14:30:53;35.00;1.00
11142;DHT22;5625;50.122;19.864;2023-07-09T14:33:21;35.00;1.00
11142;DHT22;5625;50.122;19.864;2023-07-09T14:35:50;35.00;1.00
11142;DHT22;5625;50.122;19.864;2023-07-09T14:38:21;35.00;1.00
11142;DHT22;5625;50.122;19.864;2023-07-09T14:40:52;35.00;1.00
11142;DHT22;5625;50.122;19.864;2023-07-09T14:43:22;34.90;1.00
11142;DHT22;5625;50.122;19.864;2023-07-09T14:45:50;34.90;1.00
11142;DHT22;5625;50.122;19.864;2023-07-09T14:48:20;34.90;1.00
11142;DHT22;5625;50.122;19.864;2023-07-09T14:50:48;34.70;1.00
11142;DHT22;5625;50.122;19.864;2023-07-09T14:53:24;34.70;1.00
11142;DHT22;5625;50.122;19.864;2023-07-09T14:55:54;34.60;1.00
11142;DHT22;5625;50.122;19.864;2023-07-09T14:58:26;34.40;1.00
11142;DHT22;5625;50.122;19.864;2023-07-09T15:00:54;34.50;1.00
11142;DHT22;5625;50.122;19.864;2023-07-09T15:03:26;34.50;1.00
11142;DHT22;5625;50.122;19.864;2023-07-09T15:05:55;34.50;1.00
11142;DHT22;5625;50.122;19.864;2023-07-09T15:08:24;34.50;1.00
11142;DHT22;5625;50.122;19.864;2023-07-09T15:10:54;34.30;1.00
11142;DHT22;5625;50.122;19.864;2023-07-09T15:13:29;34.30;1.00
11142;DHT22;5625;50.122;19.864;2023-07-09T15:15:58;34.30;1.00
11142;DHT22;5625;50.122;19.864;2023-07-09T15:18:29;34.30;1.00
11142;DHT22;5625;50.122;19.864;2023-07-09T15:20:59;34.30;1.00
11142;DHT22;5625;50.122;19.864;2023-07-09T15:23:28;34.20;1.00
11142;DHT22;5625;50.122;19.864;2023-07-09T15:26:01;34.20;1.00
11142;DHT22;5625;50.122;19.864;2023-07-09T15:28:29;34.10;1.00
11142;DHT22;5625;50.122;19.864;2023-07-09T15:30:57;34.10;1.00
11142;DHT22;5625;50.122;19.864;2023-07-09T15:33:25;34.10;1.00
11142;DHT22;5625;50.122;19.864;2023-07-09T15:35:53;34.00;1.00
11142;DHT22;5625;50.122;19.864;2023-07-09T15:38:27;34.00;1.00
11142;DHT22;5625;50.122;19.864;2023-07-09T15:40:56;34.00;1.00
11142;DHT22;5625;50.122;19.864;2023-07-09T15:43:28;33.90;1.00
11142;DHT22;5625;50.122;19.864;2023-07-09T15:45:57;33.90;1.00
11142;DHT22;5625;50.122;19.864;2023-07-09T15:48:34;33.90;1.00
11142;DHT22;5625;50.122;19.864;2023-07-09T15:51:05;33.80;1.00
11142;DHT22;5625;50.122;19.864;2023-07-09T15:53:33;33.80;1.00
11142;DHT22;5625;50.122;19.864;2023-07-09T15:56:06;33.80;1.00
11142;DHT22;5625;50.122;19.864;2023-07-09T15:58:41;33.80;1.00
11142;DHT22;5625;50.122;19.864;2023-07-09T16:01:11;33.70;1.00
11142;DHT22;5625;50.122;19.864;2023-07-09T16:03:48;33.60;1.00